Time;durP1;ratioP1;P1;durP2;ratioP2;P2;SDS_P1;SDS_P2;PMS_P1;PMS_P2;Temp;Humidity;BMP_temperature;BMP_pressure;BME280_temperature;BME280_humidity;BME280_pressure;Samples;Min_cycle;Max_cycle;Signal;HPM_P1;HPM_P2
2023/01/19 00:01:49;;;;;;;19.40;11.60;;;;;;;2.83;54.15;96403.50;5053312;28;20753;-71
2023/01/19 00:04:14;;;;;;;20.50;12.23;;;;;;;2.88;54.40;96403.97;5046022;28;21039;-72
2023/01/19 00:06:40;;;;;;;21.87;12.93;;;;;;;2.94;53.78;96407.00;5051971;28;20507;-71
2023/01/19 00:09:05;;;;;;;16.87;11.57;;;;;;;2.94;53.67;96402.66;5048668;28;20190;-70
2023/01/19 00:11:31;;;;;;;18.60;10.90;;;;;;;2.96;53.72;96412.88;5042772;28;20265;-70
2023/01/19 00:13:57;;;;;;;18.03;11.27;;;;;;;2.98;53.29;96413.56;5051231;28;20209;-70
2023/01/19 00:16:23;;;;;;;21.83;12.00;;;;;;;2.92;53.48;96418.28;5047977;28;20569;-71
2023/01/19 00:18:49;;;;;;;20.50;12.47;;;;;;;2.99;53.62;96410.84;5050769;28;20429;-72
2023/01/19 00:21:15;;;;;;;17.40;12.27;;;;;;;3.00;53.38;96406.50;5042649;28;20184;-71
2023/01/19 00:23:41;;;;;;;18.13;12.47;;;;;;;2.97;53.37;96404.16;5040298;28;20459;-70
2023/01/19 00:26:07;;;;;;;26.03;13.67;;;;;;;2.91;53.38;96408.06;5040826;28;20656;-70
2023/01/19 00:28:33;;;;;;;21.67;12.50;;;;;;;2.91;53.38;96408.88;5039044;28;20499;-71
2023/01/19 00:30:58;;;;;;;20.30;11.93;;;;;;;2.98;53.23;96408.38;5048188;28;20429;-71
2023/01/19 00:33:24;;;;;;;22.00;14.43;;;;;;;2.84;52.93;96418.09;5053631;28;20294;-71
2023/01/19 00:35:55;;;;;;;20.00;12.40;;;;;;;2.59;54.05;96419.22;5049053;28;20226;-71
2023/01/19 00:38:21;;;;;;;21.33;13.17;;;;;;;2.57;54.21;96414.16;5031833;28;20195;-70
2023/01/19 00:40:47;;;;;;;21.33;12.53;;;;;;;2.69;54.24;96424.47;5049143;28;20421;-72
2023/01/19 00:43:12;;;;;;;23.43;12.13;;;;;;;2.75;54.11;96418.84;5043212;28;20576;-72
2023/01/19 00:45:38;;;;;;;16.70;11.40;;;;;;;2.84;53.66;96412.91;5045102;28;20480;-70
2023/01/19 00:48:03;;;;;;;15.47;10.67;;;;;;;2.90;53.13;96422.75;5043654;28;20281;-70
2023/01/19 00:50:30;;;;;;;17.63;10.97;;;;;;;2.95;52.89;96419.81;5060604;28;20201;-71
2023/01/19 00:52:56;;;;;;;19.93;11.70;;;;;;;2.89;52.78;96418.56;5047300;28;20199;-71
2023/01/19 00:55:22;;;;;;;16.37;10.47;;;;;;;2.86;52.91;96421.38;5053883;28;20425;-69
2023/01/19 00:57:48;;;;;;;17.70;11.13;;;;;;;2.84;53.00;96418.09;5054199;28;20453;-73
2023/01/19 01:00:16;;;;;;;19.33;11.63;;;;;;;2.80;53.04;96414.09;5056770;28;20183;-72
2023/01/19 01:02:43;;;;;;;21.07;12.43;;;;;;;2.83;53.41;96421.63;5048010;28;20574;-72
2023/01/19 01:05:09;;;;;;;20.07;11.30;;;;;;;2.84;53.22;96418.09;5051406;28;20544;-70
2023/01/19 01:07:43;;;;;;;18.47;11.27;;;;;;;2.84;52.69;96423.25;5051715;28;20445;-72
2023/01/19 01:10:15;;;;;;;17.90;11.63;;;;;;;2.86;53.23;96415.38;5047469;28;20526;-70
2023/01/19 01:12:41;;;;;;;24.00;13.90;;;;;;;2.85;52.79;96422.31;5052762;28;20442;-70
2023/01/19 01:15:09;;;;;;;23.20;13.57;;;;;;;2.77;53.33;96422.13;5047292;28;20532;-71
2023/01/19 01:17:35;;;;;;;30.43;15.20;;;;;;;2.78;53.69;96421.16;5055068;28;20529;-71
2023/01/19 01:20:00;;;;;;;23.50;13.43;;;;;;;2.78;52.92;96425.53;5048556;28;20521;-72
2023/01/19 01:22:26;;;;;;;18.53;11.77;;;;;;;2.79;52.84;96433.16;5040292;28;20273;-70
2023/01/19 01:24:52;;;;;;;17.40;11.03;;;;;;;2.74;53.06;96430.13;5036040;28;20654;-70
2023/01/19 01:27:17;;;;;;;16.80;11.93;;;;;;;2.66;52.74;96424.72;5040852;28;20187;-71
2023/01/19 01:29:45;;;;;;;20.00;12.20;;;;;;;2.67;53.25;96431.53;5053371;28;20273;-72
2023/01/19 01:32:13;;;;;;;17.27;12.27;;;;;;;2.68;53.50;96433.19;5046675;28;20257;-72
2023/01/19 01:34:38;;;;;;;21.97;13.10;;;;;;;2.72;52.46;96438.00;5051056;28;20499;-72
2023/01/19 01:37:07;;;;;;;14.87;10.00;;;;;;;2.63;52.77;96436.16;5055216;28;20429;-73
2023/01/19 01:39:35;;;;;;;22.53;13.03;;;;;;;2.76;52.54;96436.00;5056585;28;20193;-71
2023/01/19 01:42:01;;;;;;;23.83;12.50;;;;;;;2.80;52.84;96437.38;5059366;28;20460;-73
2023/01/19 01:44:49;;;;;;;23.67;12.63;;;;;;;2.78;53.02;96439.28;5056378;28;20468;-71
2023/01/19 01:47:16;;;;;;;13.70;10.03;;;;;;;2.79;52.47;96440.91;5062656;28;20432;-72
2023/01/19 01:49:43;;;;;;;15.57;9.70;;;;;;;2.58;52.67;96436.50;5050167;28;20417;-71
2023/01/19 01:52:09;;;;;;;15.87;9.80;;;;;;;2.55;53.03;96433.34;5058248;28;20436;-71
2023/01/19 01:54:34;;;;;;;16.70;10.97;;;;;;;2.53;53.44;96443.81;5038521;28;20450;-71
2023/01/19 01:57:02;;;;;;;17.30;11.30;;;;;;;2.36;53.05;96434.78;5062458;28;20420;-71
2023/01/19 01:59:37;;;;;;;18.37;10.50;;;;;;;2.40;53.26;96441.38;5054991;28;20322;-71
2023/01/19 02:05:15;;;;;;;17.60;10.70;;;;;;;2.44;53.02;96435.03;5053392;28;20489;-71
2023/01/19 02:13:21;;;;;;;18.40;10.87;;;;;;;2.28;53.39;96429.41;4998768;28;20461;-71
2023/01/19 02:15:51;;;;;;;17.80;11.43;;;;;;;2.25;53.60;96433.06;5061364;28;20562;-71
2023/01/19 02:18:21;;;;;;;19.53;12.17;;;;;;;2.30;53.51;96430.09;5048589;28;20937;-71
2023/01/19 02:20:56;;;;;;;20.03;12.07;;;;;;;2.34;53.53;96430.69;5054996;28;20574;-73
2023/01/19 02:23:38;;;;;;;21.73;11.53;;;;;;;2.33;53.31;96424.69;5043285;28;20449;-73
2023/01/19 02:26:04;;;;;;;20.83;12.00;;;;;;;2.36;53.40;96428.81;5053037;28;20450;-72
2023/01/19 02:28:29;;;;;;;16.63;11.20;;;;;;;2.41;53.21;96421.47;5042987;28;20433;-72
2023/01/19 02:30:55;;;;;;;17.53;11.33;;;;;;;2.34;53.41;96417.75;5051344;28;20912;-72
2023/01/19 02:33:20;;;;;;;18.10;11.63;;;;;;;2.29;53.38;96413.75;5048741;28;20253;-72
2023/01/19 02:35:48;;;;;;;16.77;10.70;;;;;;;2.33;53.30;96423.84;5035060;28;20618;-72
2023/01/19 02:38:14;;;;;;;15.70;10.67;;;;;;;2.27;53.17;96422.56;5042214;28;20194;-72
2023/01/19 02:40:41;;;;;;;16.33;10.53;;;;;;;2.33;53.31;96436.78;5037483;28;20426;-72
2023/01/19 02:43:07;;;;;;;15.03;10.53;;;;;;;2.41;53.42;96439.59;5046788;28;20453;-71
2023/01/19 02:45:34;;;;;;;13.63;9.90;;;;;;;2.44;53.12;96444.53;5049320;28;20456;-70
2023/01/19 02:47:59;;;;;;;16.27;9.93;;;;;;;2.39;53.01;96444.09;5058779;28;20428;-72
2023/01/19 02:50:28;;;;;;;14.27;10.30;;;;;;;2.36;53.02;96439.16;5059395;28;20451;-71
2023/01/19 02:53:01;;;;;;;16.73;10.17;;;;;;;2.30;52.93;96446.44;5046590;28;20425;-71
2023/01/19 02:55:28;;;;;;;17.67;9.60;;;;;;;2.23;52.95;96449.59;5055409;28;20425;-71
2023/01/19 02:58:10;;;;;;;16.50;10.83;;;;;;;2.20;53.39;96440.31;5048635;28;20437;-72
2023/01/19 03:00:45;;;;;;;14.60;9.17;;;;;;;2.18;53.20;96443.97;5050498;28;20436;-71
2023/01/19 03:03:27;;;;;;;16.37;10.33;;;;;;;2.18;53.28;96446.56;5048334;28;20463;-72
2023/01/19 03:06:05;;;;;;;16.80;10.47;;;;;;;2.19;53.17;96446.44;5045250;28;20557;-72
2023/01/19 03:08:43;;;;;;;12.20;9.10;;;;;;;2.20;53.12;96445.50;5056852;28;20843;-71
2023/01/19 03:11:11;;;;;;;13.90;9.97;;;;;;;2.17;53.02;96445.72;5036279;28;20426;-71
2023/01/19 03:13:55;;;;;;;12.53;9.67;;;;;;;2.17;53.37;96447.50;5058446;28;20848;-72
2023/01/19 03:16:23;;;;;;;13.23;9.10;;;;;;;2.10;53.37;96445.38;5041828;28;20434;-72
2023/01/19 03:19:04;;;;;;;14.67;9.33;;;;;;;2.09;53.47;96442.94;5056550;28;20944;-71
2023/01/19 03:21:29;;;;;;;14.20;10.40;;;;;;;2.14;53.40;96440.81;5049848;28;20420;-71
2023/01/19 03:23:57;;;;;;;14.60;10.00;;;;;;;2.15;53.23;96445.03;5059237;28;20502;-71
2023/01/19 03:26:26;;;;;;;13.67;9.80;;;;;;;2.10;53.29;96445.38;5044873;28;20480;-71
2023/01/19 03:28:53;;;;;;;14.43;9.33;;;;;;;2.02;53.47;96439.19;5046827;28;20963;-72
2023/01/19 03:31:24;;;;;;;14.60;9.13;;;;;;;2.03;53.48;96440.78;5045123;28;20438;-71
2023/01/19 03:33:56;;;;;;;15.87;9.23;;;;;;;2.11;53.32;96451.38;5053929;28;20497;-73
2023/01/19 03:36:30;;;;;;;15.50;9.47;;;;;;;2.18;53.23;96447.38;5046062;28;20488;-72
2023/01/19 03:38:57;;;;;;;12.70;8.60;;;;;;;2.15;53.36;96450.19;5025257;28;20431;-70
2023/01/19 03:41:23;;;;;;;16.00;9.30;;;;;;;2.13;53.42;96449.50;5054683;28;20503;-71
2023/01/19 03:43:50;;;;;;;12.00;9.20;;;;;;;2.18;53.16;96447.38;5061482;28;20461;-71
2023/01/19 03:46:17;;;;;;;14.80;9.40;;;;;;;2.17;52.64;96445.72;5047498;28;20472;-71
2023/01/19 03:48:44;;;;;;;13.47;9.20;;;;;;;2.11;53.23;96448.81;5054585;28;20479;-71
2023/01/19 03:51:09;;;;;;;13.73;9.77;;;;;;;2.12;53.11;96450.44;5053516;28;20422;-71
2023/01/19 03:53:35;;;;;;;12.77;9.20;;;;;;;2.10;52.97;96454.91;5055939;28;20459;-71
2023/01/19 03:56:01;;;;;;;14.50;9.17;;;;;;;2.10;53.33;96447.16;5058659;28;20178;-72
2023/01/19 03:58:27;;;;;;;15.40;8.40;;;;;;;2.05;53.01;96451.84;5054991;28;20529;-73
2023/01/19 04:00:52;;;;;;;12.73;8.60;;;;;;;2.08;53.65;96455.00;5034231;28;20187;-73
2023/01/19 04:03:18;;;;;;;14.10;8.73;;;;;;;2.17;53.25;96460.44;5044411;28;20200;-73
2023/01/19 04:05:44;;;;;;;14.77;8.87;;;;;;;2.14;53.33;96467.47;5043367;28;20218;-71
2023/01/19 04:08:10;;;;;;;14.13;9.20;;;;;;;2.16;53.47;96459.59;5053456;28;20704;-71
2023/01/19 04:10:36;;;;;;;12.77;8.90;;;;;;;2.23;53.03;96465.13;5047640;28;20546;-71
2023/01/19 04:13:02;;;;;;;12.30;8.60;;;;;;;2.13;52.94;96465.03;5047092;28;20441;-72
2023/01/19 04:15:28;;;;;;;12.30;8.23;;;;;;;2.12;53.25;96469.34;5048728;28;20655;-71
2023/01/19 04:17:55;;;;;;;15.20;9.17;;;;;;;2.20;53.39;96465.38;5051392;28;20417;-70
2023/01/19 04:20:21;;;;;;;13.40;8.30;;;;;;;2.20;53.49;96466.19;5054537;28;20183;-71
2023/01/19 04:22:47;;;;;;;16.30;9.37;;;;;;;2.18;53.37;96469.84;5056769;28;20461;-71
2023/01/19 04:25:13;;;;;;;11.20;8.43;;;;;;;2.17;53.50;96471.59;5036585;28;20712;-71
2023/01/19 04:27:38;;;;;;;13.70;9.20;;;;;;;2.24;53.35;96477.94;5049504;28;20503;-71
2023/01/19 04:30:05;;;;;;;11.33;7.77;;;;;;;2.21;53.12;96477.34;5050500;28;20703;-71
2023/01/19 04:32:31;;;;;;;14.20;9.17;;;;;;;2.23;53.33;96478.88;5051067;28;20248;-70
2023/01/19 04:34:57;;;;;;;12.97;8.83;;;;;;;2.25;53.52;96474.41;5055750;28;20437;-71
2023/01/19 04:37:22;;;;;;;12.80;9.60;;;;;;;2.25;53.26;96482.19;5048561;28;20980;-70
2023/01/19 04:39:47;;;;;;;15.87;9.60;;;;;;;2.16;53.17;96488.03;5060032;28;20275;-70
2023/01/19 04:42:13;;;;;;;14.47;10.07;;;;;;;2.23;52.84;96486.66;5051026;28;20274;-71
2023/01/19 04:44:38;;;;;;;15.40;9.70;;;;;;;2.23;52.85;96476.28;5072690;28;20293;-71
2023/01/19 04:47:04;;;;;;;13.63;10.13;;;;;;;2.20;53.61;96476.53;5062419;28;20183;-71
2023/01/19 04:49:29;;;;;;;16.00;10.87;;;;;;;2.19;53.03;96477.47;5067374;28;20647;-71
2023/01/19 04:51:55;;;;;;;15.10;9.83;;;;;;;2.20;53.52;96475.72;5064110;28;20201;-72
2023/01/19 04:54:20;;;;;;;14.47;11.43;;;;;;;2.22;53.70;96479.81;5063922;28;20298;-71
2023/01/19 04:56:46;;;;;;;17.30;11.40;;;;;;;2.22;53.12;96489.31;5065227;28;20186;-71
2023/01/19 04:59:12;;;;;;;18.53;10.17;;;;;;;1.87;53.16;96490.25;5054589;28;20194;-71
2023/01/19 05:01:37;;;;;;;15.30;10.90;;;;;;;2.06;53.54;96481.94;5060267;28;20191;-71
2023/01/19 05:04:05;;;;;;;18.83;10.80;;;;;;;1.86;53.93;96484.28;5049955;28;20240;-70
2023/01/19 05:06:31;;;;;;;15.67;10.33;;;;;;;1.79;53.82;96483.91;5055629;28;20183;-71
2023/01/19 05:08:57;;;;;;;19.73;10.83;;;;;;;1.82;54.25;96488.00;5068355;28;20427;-70
2023/01/19 05:11:22;;;;;;;13.87;10.23;;;;;;;1.78;54.55;96486.59;5056828;28;20430;-71
2023/01/19 05:13:48;;;;;;;15.40;10.30;;;;;;;1.86;54.41;96494.59;5056984;28;20222;-72
2023/01/19 05:16:13;;;;;;;16.30;10.90;;;;;;;1.97;54.56;96489.44;5061370;28;20190;-71
2023/01/19 05:18:39;;;;;;;23.47;11.03;;;;;;;2.06;53.52;96492.25;5065005;28;20266;-72
2023/01/19 05:21:05;;;;;;;17.80;10.87;;;;;;;1.99;53.65;96485.00;5055015;28;20214;-71
2023/01/19 05:23:31;;;;;;;15.87;10.40;;;;;;;2.03;53.56;96489.91;5055879;28;20575;-72
2023/01/19 05:25:59;;;;;;;18.27;10.90;;;;;;;2.05;53.69;96482.88;5066288;28;20469;-72
2023/01/19 05:28:29;;;;;;;21.47;12.37;;;;;;;2.11;53.68;96492.75;5057303;28;20422;-72
2023/01/19 05:30:54;;;;;;;18.70;11.10;;;;;;;2.08;53.59;96495.56;5052242;28;20441;-71
2023/01/19 05:33:20;;;;;;;15.27;10.30;;;;;;;2.06;53.61;96494.84;5055857;28;20445;-72
2023/01/19 05:35:49;;;;;;;16.70;10.67;;;;;;;2.04;53.61;96494.97;5060542;28;20186;-72
2023/01/19 05:38:14;;;;;;;16.97;10.93;;;;;;;1.87;53.82;96504.00;5065001;28;20524;-71
2023/01/19 05:40:40;;;;;;;27.77;15.70;;;;;;;1.87;54.02;96501.44;5049456;28;20565;-72
2023/01/19 05:43:05;;;;;;;38.67;23.57;;;;;;;1.96;53.53;96511.06;5060663;28;20250;-70
2023/01/19 05:45:31;;;;;;;28.30;19.27;;;;;;;1.96;53.55;96511.06;5065532;28;20234;-70
2023/01/19 05:47:56;;;;;;;37.67;19.50;;;;;;;1.92;53.56;96514.81;5054897;28;20187;-72
2023/01/19 05:50:22;;;;;;;32.40;18.60;;;;;;;1.90;53.46;96516.69;5064242;28;20190;-71
2023/01/19 05:52:47;;;;;;;42.07;24.40;;;;;;;1.92;53.36;96517.38;5062328;28;20187;-71
2023/01/19 05:55:13;;;;;;;46.90;24.77;;;;;;;1.88;53.35;96513.41;5066186;28;20420;-71
2023/01/19 05:57:39;;;;;;;34.80;19.20;;;;;;;1.94;53.71;96520.69;5062399;28;20187;-72
2023/01/19 06:00:05;;;;;;;26.70;14.77;;;;;;;1.98;53.70;96521.28;5061808;28;20226;-72
2023/01/19 06:02:31;;;;;;;25.87;15.50;;;;;;;1.88;53.62;96518.59;5058805;28;20182;-73
2023/01/19 06:04:56;;;;;;;23.17;14.90;;;;;;;1.92;53.93;96527.72;5039395;28;20977;-72
2023/01/19 06:07:22;;;;;;;22.83;13.07;;;;;;;1.97;53.50;96523.06;5051282;28;20237;-71
2023/01/19 06:09:47;;;;;;;25.33;12.10;;;;;;;2.01;53.75;96525.41;5059336;28;20183;-72
2023/01/19 06:12:13;;;;;;;15.13;10.53;;;;;;;1.99;53.50;96530.69;5057769;28;20892;-72
2023/01/19 06:14:39;;;;;;;17.17;11.47;;;;;;;1.97;53.63;96530.81;5051993;28;20194;-71
2023/01/19 06:17:06;;;;;;;18.63;10.77;;;;;;;1.67;54.21;96526.97;5048877;28;20191;-71
2023/01/19 06:19:33;;;;;;;13.00;9.60;;;;;;;1.77;53.94;96536.63;5052688;28;20503;-71
2023/01/19 06:21:59;;;;;;;15.50;11.20;;;;;;;1.82;53.89;96532.78;5059581;28;20773;-71
2023/01/19 06:24:24;;;;;;;13.90;10.00;;;;;;;1.76;54.39;96532.41;5053022;28;20545;-72
2023/01/19 06:26:50;;;;;;;16.73;9.57;;;;;;;1.59;54.31;96528.47;5051388;28;20758;-71
2023/01/19 06:29:16;;;;;;;14.80;10.17;;;;;;;1.74;54.33;96542.84;5051604;28;20194;-70
2023/01/19 06:31:41;;;;;;;17.93;10.83;;;;;;;1.78;54.34;96535.69;5057564;28;20237;-73
2023/01/19 06:34:07;;;;;;;17.90;9.93;;;;;;;1.77;53.91;96546.94;5051322;28;20231;-73
2023/01/19 06:36:32;;;;;;;18.77;10.30;;;;;;;1.76;53.73;96542.75;5047882;28;20191;-72
2023/01/19 06:38:58;;;;;;;13.90;9.73;;;;;;;1.82;54.54;96542.28;5035516;28;20191;-72
2023/01/19 06:41:23;;;;;;;18.10;10.77;;;;;;;1.79;54.58;96551.09;5051668;28;20208;-73
2023/01/19 06:43:49;;;;;;;15.53;9.97;;;;;;;1.80;54.13;96546.72;5049795;28;20557;-73
2023/01/19 06:46:14;;;;;;;15.73;10.10;;;;;;;1.56;54.35;96545.03;5045508;28;20269;-72
2023/01/19 06:48:40;;;;;;;18.47;10.77;;;;;;;1.79;54.33;96543.34;5051608;28;20229;-73
2023/01/19 06:51:05;;;;;;;15.20;10.60;;;;;;;1.91;54.19;96540.78;5063708;28;20240;-71
2023/01/19 06:53:31;;;;;;;19.73;10.60;;;;;;;1.95;54.06;96540.44;5042124;28;20704;-72
2023/01/19 06:55:59;;;;;;;14.90;9.87;;;;;;;1.95;54.11;96542.22;5050860;28;20183;-72
2023/01/19 06:58:24;;;;;;;12.93;8.80;;;;;;;1.98;54.33;96540.22;5049409;28;20203;-72
2023/01/19 07:00:50;;;;;;;16.13;9.73;;;;;;;1.93;53.92;96536.31;5054630;28;20432;-73
2023/01/19 07:03:19;;;;;;;13.63;9.33;;;;;;;1.97;54.27;96542.88;5059035;28;20209;-71
2023/01/19 07:05:44;;;;;;;15.00;9.50;;;;;;;1.93;54.04;96547.47;5051206;28;20715;-72
2023/01/19 07:08:10;;;;;;;14.13;8.67;;;;;;;1.87;54.17;96552.28;5058645;28;20510;-71
2023/01/19 07:10:36;;;;;;;15.87;8.83;;;;;;;1.84;53.94;96555.91;5036075;28;20275;-72
2023/01/19 07:13:01;;;;;;;13.63;8.10;;;;;;;1.89;54.33;96558.97;5033804;28;20207;-72
2023/01/19 07:15:27;;;;;;;13.67;8.60;;;;;;;1.92;54.40;96558.75;5018269;28;20422;-71
2023/01/19 07:17:52;;;;;;;12.00;8.53;;;;;;;1.92;54.81;96556.16;5038359;28;20270;-70
2023/01/19 07:20:18;;;;;;;14.70;7.67;;;;;;;1.98;54.13;96555.72;5033953;28;20175;-71
2023/01/19 07:22:45;;;;;;;10.60;8.17;;;;;;;1.97;54.13;96559.22;5032658;28;20249;-71
2023/01/19 07:25:11;;;;;;;13.47;8.30;;;;;;;1.97;53.55;96554.06;5032195;28;20454;-70
2023/01/19 07:27:37;;;;;;;15.20;9.15;;;;;;;1.96;53.86;96554.16;5038026;28;20447;-70
2023/01/19 07:30:03;;;;;;;13.50;8.13;;;;;;;1.97;53.61;96550.63;5045493;28;20758;-71
2023/01/19 07:32:29;;;;;;;12.60;7.70;;;;;;;1.93;53.39;96542.31;5043146;28;20244;-72
2023/01/19 07:34:54;;;;;;;12.53;8.10;;;;;;;2.04;53.77;96538.09;5040797;28;20811;-72
2023/01/19 07:37:20;;;;;;;14.83;8.90;;;;;;;2.08;53.37;96550.66;5043614;28;20247;-71
2023/01/19 07:39:45;;;;;;;20.70;8.17;;;;;;;2.20;52.96;96550.69;5039324;28;20183;-72
2023/01/19 07:42:11;;;;;;;14.77;8.73;;;;;;;2.23;52.79;96553.03;5045201;28;20233;-71
2023/01/19 07:44:36;;;;;;;12.37;7.93;;;;;;;2.21;52.97;96563.50;5050696;28;20214;-72
2023/01/19 07:47:02;;;;;;;16.43;9.30;;;;;;;2.11;52.93;96562.56;5043443;28;20429;-72
2023/01/19 07:49:27;;;;;;;15.63;9.10;;;;;;;2.07;53.41;96561.13;5048908;28;20642;-71
2023/01/19 07:51:55;;;;;;;12.57;8.03;;;;;;;1.90;53.22;96564.97;5051076;28;20220;-71
2023/01/19 07:54:21;;;;;;;13.20;7.90;;;;;;;1.85;53.71;96575.66;5032571;28;20214;-72
2023/01/19 07:56:46;;;;;;;16.70;8.20;;;;;;;2.00;53.36;96571.09;5034397;28;20506;-71
2023/01/19 07:59:11;;;;;;;14.80;8.23;;;;;;;2.25;53.02;96567.50;5040366;28;20560;-73
2023/01/19 08:01:37;;;;;;;15.60;8.87;;;;;;;2.69;53.00;96575.41;5038571;28;20194;-72
2023/01/19 08:04:03;;;;;;;12.80;8.57;;;;;;;3.02;52.15;96580.66;5052534;28;20211;-73
2023/01/19 08:06:36;;;;;;;12.33;8.00;;;;;;;3.28;51.54;96575.16;5045678;28;20620;-71
2023/01/19 08:09:04;;;;;;;11.67;8.07;;;;;;;3.51;50.71;96575.94;5049193;28;20206;-72
2023/01/19 08:11:30;;;;;;;18.20;8.03;;;;;;;3.50;49.76;96582.91;5042141;28;20433;-71
2023/01/19 08:13:55;;;;;;;14.10;8.93;;;;;;;4.03;49.97;96577.81;5049514;28;20466;-72
2023/01/19 08:16:21;;;;;;;12.77;7.80;;;;;;;4.40;49.30;96583.38;5038935;28;20917;-71
2023/01/19 08:18:46;;;;;;;11.80;6.73;;;;;;;4.57;48.61;96583.69;5052551;28;20200;-72
2023/01/19 08:21:12;;;;;;;12.87;7.33;;;;;;;4.58;46.87;96580.16;5046878;28;20226;-72
2023/01/19 08:23:37;;;;;;;12.97;6.63;;;;;;;4.79;47.12;96587.09;5055841;28;20290;-72
2023/01/19 08:26:20;;;;;;;15.13;8.37;;;;;;;5.08;47.08;96585.38;5043978;28;20360;-71
2023/01/19 08:28:45;;;;;;;18.37;9.43;;;;;;;5.62;46.60;96587.66;5042899;28;20181;-74
2023/01/19 08:31:11;;;;;;;11.27;7.00;;;;;;;5.80;44.86;96587.78;5051800;28;20421;-74
2023/01/19 08:33:36;;;;;;;10.97;7.03;;;;;;;5.86;44.90;96590.81;5043121;28;20237;-70
2023/01/19 08:36:01;;;;;;;10.23;6.30;;;;;;;6.28;44.34;96582.69;5050610;28;20236;-71
2023/01/19 08:38:27;;;;;;;7.70;6.17;;;;;;;6.43;43.74;96588.25;5045501;28;20247;-71
2023/01/19 08:40:52;;;;;;;13.10;6.90;;;;;;;6.79;42.80;96591.03;5039304;28;20184;-73
2023/01/19 08:43:18;;;;;;;8.07;6.20;;;;;;;7.07;42.12;96597.06;5055165;28;20282;-71
2023/01/19 08:45:50;;;;;;;9.70;6.53;;;;;;;7.20;42.16;96595.91;5052397;28;20428;-73
2023/01/19 08:48:17;;;;;;;10.30;7.27;;;;;;;7.13;41.97;96600.06;5053112;28;20414;-74
2023/01/19 08:50:45;;;;;;;16.63;6.50;;;;;;;7.31;42.15;96602.72;5056142;28;20450;-74
2023/01/19 08:53:11;;;;;;;12.80;6.80;;;;;;;7.15;42.63;96598.97;5053006;28;20548;-73
2023/01/19 08:55:36;;;;;;;9.00;6.57;;;;;;;7.47;41.87;96594.25;5053440;28;20877;-71
2023/01/19 08:58:03;;;;;;;7.70;6.10;;;;;;;7.76;41.66;96601.03;5052734;28;20191;-72
2023/01/19 09:00:30;;;;;;;7.63;5.80;;;;;;;8.01;40.39;96602.06;5053059;28;20171;-72
2023/01/19 09:02:56;;;;;;;13.20;6.70;;;;;;;8.25;40.31;96595.38;5057559;28;20410;-72
2023/01/19 09:05:22;;;;;;;7.70;5.73;;;;;;;7.71;40.76;96604.06;5053104;28;20932;-70
2023/01/19 09:07:48;;;;;;;10.50;6.17;;;;;;;7.26;41.54;96610.16;5051370;28;20417;-72
2023/01/19 09:10:14;;;;;;;8.50;6.07;;;;;;;6.96;41.83;96610.31;5053302;28;20892;-71
2023/01/19 09:12:40;;;;;;;12.00;6.03;;;;;;;6.73;43.49;96615.03;5053037;28;20187;-73
2023/01/19 09:15:06;;;;;;;8.13;5.63;;;;;;;6.26;43.32;96603.66;5052194;28;20440;-74
2023/01/19 09:17:31;;;;;;;7.60;5.83;;;;;;;6.41;43.25;96611.03;5046452;28;20187;-72
2023/01/19 09:19:57;;;;;;;8.47;6.13;;;;;;;6.77;43.26;96621.63;5055068;28;20567;-74
2023/01/19 09:22:23;;;;;;;9.83;6.50;;;;;;;7.02;42.77;96612.31;5051807;28;20187;-70
2023/01/19 09:24:48;;;;;;;8.40;5.77;;;;;;;7.30;42.31;96622.75;5052582;28;20211;-71
2023/01/19 09:27:13;;;;;;;9.77;6.20;;;;;;;7.50;41.40;96617.41;5052344;28;20193;-71
2023/01/19 09:29:39;;;;;;;12.03;6.50;;;;;;;7.52;40.68;96621.53;5053129;28;20203;-72
2023/01/19 09:32:04;;;;;;;8.23;6.40;;;;;;;7.66;42.27;96601.91;5052792;28;20281;-72
2023/01/19 09:34:30;;;;;;;12.10;6.63;;;;;;;7.58;42.41;96608.84;5052625;28;20975;-74
2023/01/19 09:36:56;;;;;;;9.87;6.87;;;;;;;7.21;42.99;96616.59;5048837;28;20210;-74
2023/01/19 09:39:21;;;;;;;10.43;6.53;;;;;;;7.30;42.17;96616.72;5051170;28;20182;-72
2023/01/19 09:42:05;;;;;;;8.13;5.90;;;;;;;7.14;43.29;96612.13;5032787;28;20706;-73
2023/01/19 09:44:33;;;;;;;8.17;5.97;;;;;;;7.02;43.19;96614.91;5042970;28;20199;-72
2023/01/19 09:47:11;;;;;;;13.13;7.43;;;;;;;6.73;43.19;96615.03;5059903;28;20474;-74
2023/01/19 09:49:40;;;;;;;7.13;5.60;;;;;;;6.63;43.04;96624.69;5043893;28;20800;-74
2023/01/19 09:52:09;;;;;;;7.73;5.83;;;;;;;7.21;42.70;96623.63;5051318;28;20444;-73
2023/01/19 09:54:46;;;;;;;7.43;5.80;;;;;;;7.19;42.82;96617.72;5066326;28;20533;-73
2023/01/19 09:57:13;;;;;;;7.47;5.30;;;;;;;6.98;42.31;96618.81;5049597;28;21012;-74
2023/01/19 09:59:39;;;;;;;8.10;6.00;;;;;;;7.09;42.04;96615.16;5050046;28;20429;-74
2023/01/19 10:02:23;;;;;;;12.27;6.40;;;;;;;6.63;42.95;96629.88;5056752;28;20428;-73
2023/01/19 10:05:16;;;;;;;6.47;5.20;;;;;;;6.49;44.00;96626.75;5051874;28;20556;-71
2023/01/19 10:08:10;;;;;;;10.00;6.40;;;;;;;6.51;43.57;96627.44;5050323;28;20425;-74
2023/01/19 10:10:36;;;;;;;8.87;5.80;;;;;;;6.34;43.49;96622.94;5049988;28;20475;-74
2023/01/19 10:13:20;;;;;;;7.37;5.77;;;;;;;6.28;44.17;96622.56;5032329;28;20418;-71
2023/01/19 10:16:24;;;;;;;7.20;5.50;;;;;;;6.11;44.60;96620.66;5046016;28;20455;-74
2023/01/19 10:18:52;;;;;;;7.40;5.70;;;;;;;6.05;44.69;96621.22;5049616;28;20428;-72
2023/01/19 10:21:27;;;;;;;7.57;6.30;;;;;;;6.02;45.16;96616.28;5060669;28;20787;-72
2023/01/19 10:24:27;;;;;;;9.87;6.23;;;;;;;5.87;45.25;96619.28;5050610;28;20583;-73
2023/01/19 10:26:53;;;;;;;8.43;5.90;;;;;;;5.67;46.32;96619.25;5052505;28;20464;-73
2023/01/19 10:29:45;;;;;;;11.07;6.60;;;;;;;5.67;46.77;96632.25;5051570;28;20413;-74
2023/01/19 10:32:13;;;;;;;9.97;6.10;;;;;;;5.50;46.09;96644.13;5048288;28;20437;-72
2023/01/19 10:34:40;;;;;;;8.73;6.53;;;;;;;5.53;45.99;96625.69;5051758;28;20465;-73
2023/01/19 10:37:28;;;;;;;9.50;6.17;;;;;;;5.42;46.68;96619.78;5054234;28;20442;-73
2023/01/19 10:39:56;;;;;;;11.67;6.33;;;;;;;5.45;46.33;96624.69;5043475;28;20422;-73
2023/01/19 10:42:21;;;;;;;9.43;6.73;;;;;;;5.38;46.51;96614.84;5048147;28;20447;-71
2023/01/19 10:44:48;;;;;;;13.90;7.33;;;;;;;5.52;46.94;96610.22;5051007;28;20548;-72
2023/01/19 10:47:16;;;;;;;8.70;6.40;;;;;;;5.34;46.40;96613.47;5048994;28;20183;-72
2023/01/19 10:49:42;;;;;;;11.53;6.63;;;;;;;5.24;47.00;96610.03;5050666;28;20421;-73
2023/01/19 10:52:18;;;;;;;14.13;6.87;;;;;;;5.37;46.82;96610.63;5051258;28;20454;-71
2023/01/19 10:54:43;;;;;;;11.83;6.17;;;;;;;5.46;46.89;96608.16;5044861;28;20797;-73
2023/01/19 10:57:11;;;;;;;10.10;6.70;;;;;;;5.43;46.85;96606.66;5049424;28;20417;-72
2023/01/19 10:59:42;;;;;;;8.27;6.27;;;;;;;5.27;47.14;96608.94;5049524;28;20183;-73
2023/01/19 11:02:26;;;;;;;8.77;6.47;;;;;;;5.39;46.79;96615.66;5055893;28;20413;-74
2023/01/19 11:04:57;;;;;;;9.30;7.07;;;;;;;5.35;46.95;96619.50;5044956;28;20996;-74
2023/01/19 11:07:22;;;;;;;19.40;6.63;;;;;;;5.14;46.75;96622.19;5051260;28;20936;-73
2023/01/19 11:09:48;;;;;;;8.17;5.93;;;;;;;5.28;47.40;96614.03;5051669;28;20429;-73
2023/01/19 11:12:16;;;;;;;7.80;6.30;;;;;;;5.48;47.81;96608.84;5050185;28;20209;-73
2023/01/19 11:14:41;;;;;;;10.47;6.60;;;;;;;5.56;47.39;96606.38;5050045;28;20472;-73
2023/01/19 11:17:17;;;;;;;14.53;5.70;;;;;;;5.66;46.51;96611.59;5048852;28;20788;-73
2023/01/19 11:19:42;;;;;;;8.93;5.57;;;;;;;5.92;46.73;96611.88;5046982;28;20194;-72
2023/01/19 11:22:23;;;;;;;12.30;6.30;;;;;;;6.02;46.24;96617.09;5066870;28;20423;-72
2023/01/19 11:24:49;;;;;;;8.00;5.80;;;;;;;5.89;46.29;96613.94;5048617;28;20207;-72
2023/01/19 11:27:21;;;;;;;6.07;5.20;;;;;;;5.97;45.53;96607.09;5048628;28;20424;-72
2023/01/19 11:29:56;;;;;;;7.07;5.70;;;;;;;6.27;45.83;96609.69;5051075;28;20196;-75
2023/01/19 11:32:22;;;;;;;13.17;6.70;;;;;;;6.48;46.10;96612.09;5049449;28;20838;-72
2023/01/19 11:34:48;;;;;;;8.13;6.10;;;;;;;6.51;45.08;96611.84;5050651;28;20438;-73
2023/01/19 11:37:19;;;;;;;8.80;5.93;;;;;;;6.54;45.00;96601.13;5048056;28;20179;-73
2023/01/19 11:39:50;;;;;;;9.13;5.80;;;;;;;6.30;44.86;96599.81;5053772;28;20789;-72
2023/01/19 11:42:17;;;;;;;7.03;5.30;;;;;;;6.49;44.89;96598.13;5050707;28;20429;-73
2023/01/19 11:44:56;;;;;;;9.20;5.90;;;;;;;6.56;45.16;96599.19;5048758;28;20496;-72